Time;durP1;ratioP1;P1;durP2;ratioP2;P2;SDS_P1;SDS_P2;PMS_P1;PMS_P2;Temp;Humidity;BMP_temperature;BMP_pressure;BME280_temperature;BME280_humidity;BME280_pressure;Samples;Min_cycle;Max_cycle;Signal;HPM_P1;HPM_P2
2022/11/25 00:01:47;;;;;;;6.47;4.65;;;4.60;99.90;;;;;;4994410;28;20219;-68
2022/11/25 00:04:13;;;;;;;5.23;4.47;;;4.70;99.90;;;;;;5001700;28;20237;-69
2022/11/25 00:06:38;;;;;;;8.70;4.78;;;4.90;99.90;;;;;;4999672;28;20559;-68
2022/11/25 00:09:08;;;;;;;8.70;4.80;;;4.20;99.90;;;;;;5007110;28;20221;-68
2022/11/25 00:11:36;;;;;;;6.95;4.57;;;4.60;99.90;;;;;;5004274;28;20263;-67
2022/11/25 00:14:01;;;;;;;4.97;4.47;;;4.60;99.90;;;;;;4994642;28;20201;-68
2022/11/25 00:16:27;;;;;;;7.37;5.00;;;4.90;99.90;;;;;;5004788;28;20188;-69
2022/11/25 00:18:55;;;;;;;6.63;4.77;;;4.20;99.90;;;;;;5005696;28;20263;-68
2022/11/25 00:21:26;;;;;;;7.53;5.03;;;5.20;99.90;;;;;;5003209;28;20174;-68
2022/11/25 00:23:57;;;;;;;7.22;5.45;;;4.30;99.90;;;;;;4995688;28;20210;-68
2022/11/25 00:26:23;;;;;;;5.05;4.13;;;4.70;99.90;;;;;;5003164;28;20212;-69
2022/11/25 00:28:50;;;;;;;8.13;4.43;;;4.90;99.90;;;;;;4989163;28;20195;-68
2022/11/25 00:31:24;;;;;;;8.93;5.30;;;4.70;99.90;;;;;;4993885;28;20570;-68
2022/11/25 00:33:50;;;;;;;5.78;4.05;;;4.60;99.90;;;;;;5000839;28;20584;-67
2022/11/25 00:36:30;;;;;;;6.10;4.20;;;4.90;99.90;;;;;;5008109;28;20202;-68
2022/11/25 00:39:05;;;;;;;6.43;4.53;;;4.70;99.90;;;;;;4997475;28;20217;-68
2022/11/25 00:44:35;;;;;;;4.63;3.72;;;4.80;99.90;;;;;;5005091;28;20233;-68
2022/11/25 00:47:01;;;;;;;7.93;4.47;;;4.60;99.90;;;;;;4998176;28;20670;-68
2022/11/25 00:49:27;;;;;;;6.13;4.50;;;4.20;99.90;;;;;;5008799;28;20194;-69
2022/11/25 00:51:54;;;;;;;6.83;4.50;;;4.70;99.90;;;;;;5002147;28;20676;-68
2022/11/25 00:54:19;;;;;;;6.68;4.53;;;4.60;99.90;;;;;;5001333;28;20461;-68
2022/11/25 00:56:45;;;;;;;5.97;4.23;;;4.80;99.90;;;;;;4997117;28;20225;-68
2022/11/25 00:59:11;;;;;;;6.40;4.03;;;4.50;99.90;;;;;;5002351;28;20244;-68
2022/11/25 01:01:37;;;;;;;8.50;4.00;;;4.90;99.90;;;;;;4999522;28;20671;-67
2022/11/25 01:04:03;;;;;;;7.37;4.77;;;4.60;99.90;;;;;;4993925;28;20204;-68
2022/11/25 01:06:29;;;;;;;8.23;4.32;;;4.60;99.90;;;;;;4992653;28;21004;-69
2022/11/25 01:08:54;;;;;;;4.90;4.00;;;4.80;99.90;;;;;;5007418;28;20345;-67
2022/11/25 01:11:22;;;;;;;7.60;4.00;;;4.60;99.90;;;;;;5005646;28;20193;-69
2022/11/25 01:13:48;;;;;;;8.48;4.30;;;4.80;99.90;;;;;;4991113;28;20212;-67
2022/11/25 01:16:16;;;;;;;6.55;4.60;;;4.80;99.90;;;;;;5000006;28;20209;-69
2022/11/25 01:18:43;;;;;;;5.18;4.25;;;5.10;99.90;;;;;;4999583;28;20221;-69
2022/11/25 01:21:20;;;;;;;5.32;3.40;;;5.00;99.90;;;;;;4993043;28;20186;-69
2022/11/25 01:23:47;;;;;;;8.00;4.28;;;5.20;99.90;;;;;;4992398;28;20217;-69
2022/11/25 01:26:18;;;;;;;4.43;4.00;;;5.20;99.90;;;;;;5016988;28;20184;-69
2022/11/25 01:28:45;;;;;;;6.20;3.75;;;5.30;99.90;;;;;;5013081;28;20335;-68
2022/11/25 01:31:16;;;;;;;5.30;3.90;;;5.40;99.90;;;;;;4992361;28;20212;-69
2022/11/25 01:33:43;;;;;;;7.43;3.90;;;5.40;99.90;;;;;;4991035;28;20225;-69
2022/11/25 01:36:14;;;;;;;7.45;3.95;;;5.30;99.90;;;;;;4994699;28;20199;-69
2022/11/25 01:38:40;;;;;;;6.63;3.85;;;5.50;99.90;;;;;;4994022;28;20207;-69
2022/11/25 01:41:08;;;;;;;4.70;3.55;;;5.60;99.90;;;;;;5002643;28;20209;-69
2022/11/25 01:43:33;;;;;;;5.95;4.00;;;5.60;99.90;;;;;;5004005;28;20202;-69
2022/11/25 01:46:08;;;;;;;4.57;3.23;;;5.40;99.90;;;;;;4995777;28;20186;-69
2022/11/25 01:48:41;;;;;;;4.65;3.85;;;5.60;99.90;;;;;;4991568;28;20178;-69
2022/11/25 01:51:22;;;;;;;4.05;3.42;;;5.40;99.90;;;;;;5048911;23;20321;-87
2022/11/25 01:53:49;;;;;;;4.97;3.70;;;5.60;99.90;;;;;;5011138;28;20564;-87
2022/11/25 01:56:15;;;;;;;5.57;4.03;;;5.70;99.90;;;;;;5032251;28;20204;-86
2022/11/25 01:58:43;;;;;;;8.07;3.50;;;5.10;99.90;;;;;;5028506;28;20215;-87
2022/11/25 02:01:09;;;;;;;3.30;3.00;;;5.90;99.90;;;;;;5028478;28;20202;-87
2022/11/25 02:03:43;;;;;;;5.43;3.50;;;6.10;99.90;;;;;;4999683;28;20197;-86
2022/11/25 02:06:28;;;;;;;3.83;3.20;;;5.80;99.90;;;;;;5032658;28;20182;-86
2022/11/25 02:09:03;;;;;;;4.97;3.30;;;5.80;99.90;;;;;;5007650;28;20191;-87
2022/11/25 02:11:30;;;;;;;4.80;3.85;;;6.10;99.90;;;;;;5012398;28;20205;-87
2022/11/25 02:13:57;;;;;;;4.20;3.65;;;6.40;99.90;;;;;;5013796;28;20190;-87
2022/11/25 02:16:23;;;;;;;7.90;4.07;;;6.40;99.90;;;;;;5032811;28;20183;-87
2022/11/25 02:18:49;;;;;;;5.87;4.43;;;5.80;99.90;;;;;;5031591;28;20317;-87
2022/11/25 02:21:19;;;;;;;4.50;3.55;;;6.10;99.90;;;;;;5031325;28;20656;-87
2022/11/25 02:23:56;;;;;;;7.75;3.80;;;6.00;99.90;;;;;;5012220;28;20678;-88
2022/11/25 02:26:22;;;;;;;6.95;3.78;;;5.90;99.90;;;;;;5011432;28;20187;-87
2022/11/25 02:28:47;;;;;;;4.18;3.72;;;6.30;99.90;;;;;;5011648;28;20616;-87
2022/11/25 02:31:19;;;;;;;5.30;4.30;;;5.80;99.90;;;;;;5028894;28;20198;-87
2022/11/25 02:33:45;;;;;;;4.03;3.55;;;5.40;99.90;;;;;;5009157;28;20192;-87
2022/11/25 02:36:15;;;;;;;5.73;4.40;;;6.00;99.90;;;;;;5024208;28;20220;-89
2022/11/25 02:38:46;;;;;;;5.30;4.63;;;5.70;99.90;;;;;;5009408;28;20210;-89
2022/11/25 02:41:24;;;;;;;4.63;3.85;;;5.70;99.90;;;;;;5014366;28;20222;-89
2022/11/25 02:43:50;;;;;;;4.10;3.70;;;6.10;99.90;;;;;;5001964;28;20348;-88
2022/11/25 02:46:22;;;;;;;4.77;3.50;;;5.70;99.90;;;;;;5012505;28;20541;-89
2022/11/25 02:48:48;;;;;;;4.65;3.75;;;5.20;99.90;;;;;;5013526;28;20532;-87
2022/11/25 02:51:16;;;;;;;4.90;3.70;;;6.00;99.90;;;;;;5022581;28;20248;-87
2022/11/25 02:53:43;;;;;;;4.47;3.90;;;5.10;99.90;;;;;;5010888;28;20241;-88
2022/11/25 02:56:09;;;;;;;5.93;4.38;;;5.80;99.90;;;;;;5028071;28;20198;-87
2022/11/25 02:58:35;;;;;;;6.22;4.20;;;5.60;99.90;;;;;;5029243;28;20256;-87
2022/11/25 03:01:01;;;;;;;5.73;3.70;;;5.40;99.90;;;;;;5025686;28;20299;-88
2022/11/25 03:03:26;;;;;;;4.20;3.80;;;5.60;99.90;;;;;;5029039;28;20190;-89
2022/11/25 03:05:52;;;;;;;5.50;4.17;;;5.70;99.90;;;;;;5011080;28;20186;-87
2022/11/25 03:08:17;;;;;;;9.10;4.53;;;5.30;99.90;;;;;;5029248;28;20835;-88
2022/11/25 03:10:43;;;;;;;3.73;3.33;;;6.10;99.90;;;;;;5030067;28;20217;-89
2022/11/25 03:13:09;;;;;;;4.30;3.63;;;5.50;99.90;;;;;;5014691;28;20217;-89
2022/11/25 03:15:34;;;;;;;7.93;4.40;;;5.60;99.90;;;;;;5011135;28;20185;-86
2022/11/25 03:18:01;;;;;;;6.07;4.00;;;5.50;99.90;;;;;;5013337;28;20212;-89
2022/11/25 03:20:27;;;;;;;5.95;4.00;;;5.90;99.90;;;;;;5021866;28;20452;-89
2022/11/25 03:22:53;;;;;;;5.05;3.88;;;5.10;99.90;;;;;;5012158;28;20250;-89
2022/11/25 03:25:18;;;;;;;4.50;3.80;;;5.20;99.90;;;;;;5032611;28;20748;-89
2022/11/25 03:27:44;;;;;;;8.93;4.37;;;5.40;99.90;;;;;;5031833;28;20189;-89
2022/11/25 03:30:14;;;;;;;6.90;4.43;;;5.10;99.90;;;;;;5016581;28;20528;-88
2022/11/25 03:32:40;;;;;;;5.57;4.25;;;4.90;99.90;;;;;;5014691;28;20194;-86
2022/11/25 03:35:06;;;;;;;8.20;4.67;;;4.80;99.90;;;;;;5035432;28;20283;-86
2022/11/25 03:37:31;;;;;;;4.90;3.60;;;5.00;99.90;;;;;;5035610;28;20210;-87
2022/11/25 03:39:57;;;;;;;6.10;4.10;;;5.50;99.90;;;;;;5019327;28;20220;-87
2022/11/25 03:42:22;;;;;;;7.70;4.90;;;5.30;99.90;;;;;;5013157;28;20674;-88
2022/11/25 03:44:48;;;;;;;6.50;4.80;;;4.70;99.90;;;;;;5008136;28;20204;-87
2022/11/25 03:47:13;;;;;;;9.33;4.23;;;5.20;99.90;;;;;;5007260;28;20263;-87
2022/11/25 03:49:39;;;;;;;5.43;4.90;;;4.90;99.90;;;;;;5017608;28;20214;-87
2022/11/25 03:52:04;;;;;;;5.20;4.70;;;5.10;99.90;;;;;;5029520;28;20562;-87
2022/11/25 03:54:30;;;;;;;8.00;4.57;;;4.80;99.90;;;;;;5033388;28;20641;-87
2022/11/25 03:56:55;;;;;;;6.07;4.43;;;5.00;99.90;;;;;;5008468;28;20197;-87
2022/11/25 03:59:21;;;;;;;5.87;3.63;;;5.00;99.90;;;;;;5011535;28;20210;-87
2022/11/25 04:01:47;;;;;;;4.77;3.87;;;4.90;99.90;;;;;;5028138;28;20202;-85
2022/11/25 04:04:12;;;;;;;4.70;3.50;;;4.90;99.90;;;;;;5029902;28;20204;-86
2022/11/25 04:06:38;;;;;;;4.03;3.63;;;4.90;99.90;;;;;;5028899;28;20650;-87
2022/11/25 04:09:05;;;;;;;4.10;3.50;;;5.00;99.90;;;;;;5013501;28;20829;-87
2022/11/25 04:14:15;;;;;;;6.32;3.88;;;5.00;99.90;;;;;;5006551;28;20240;-88
2022/11/25 04:16:40;;;;;;;7.60;4.07;;;5.40;99.90;;;;;;5010558;28;20191;-89
2022/11/25 04:19:06;;;;;;;6.20;4.70;;;5.00;99.90;;;;;;5026542;28;20203;-89
2022/11/25 04:21:31;;;;;;;5.27;3.77;;;5.00;99.90;;;;;;5012270;28;20272;-89
2022/11/25 04:23:57;;;;;;;5.10;3.93;;;4.80;99.90;;;;;;5010203;28;20191;-89
2022/11/25 04:26:23;;;;;;;5.10;4.07;;;5.00;99.90;;;;;;5016771;28;20195;-90
2022/11/25 04:28:49;;;;;;;4.65;4.10;;;4.60;99.90;;;;;;5016018;28;20351;-89
2022/11/25 04:31:14;;;;;;;5.23;4.57;;;5.20;99.90;;;;;;5010885;28;20213;-89
2022/11/25 04:33:40;;;;;;;7.87;4.73;;;5.10;99.90;;;;;;5012021;28;20189;-88
2022/11/25 04:36:06;;;;;;;6.67;4.40;;;5.10;99.90;;;;;;5024185;28;20191;-86
2022/11/25 04:38:31;;;;;;;8.20;4.55;;;5.10;99.90;;;;;;5026054;28;20195;-86
2022/11/25 04:40:57;;;;;;;6.20;4.80;;;5.10;99.90;;;;;;5007615;28;20244;-82
2022/11/25 04:43:22;;;;;;;7.20;4.40;;;4.90;99.90;;;;;;5005865;28;20208;-81
2022/11/25 04:45:49;;;;;;;5.70;4.10;;;5.30;99.90;;;;;;5007007;28;20197;-82
2022/11/25 04:48:14;;;;;;;4.40;4.00;;;5.60;99.90;;;;;;5007570;28;20201;-80
2022/11/25 04:50:40;;;;;;;5.80;3.90;;;5.40;99.90;;;;;;5008894;28;20226;-80
2022/11/25 04:53:06;;;;;;;6.70;4.17;;;;;;;;;;5021595;28;20240;-90
2022/11/25 04:55:31;;;;;;;4.90;4.13;;;5.30;99.90;;;;;;5005952;28;20214;-81
2022/11/25 04:57:57;;;;;;;4.90;4.40;;;5.20;99.90;;;;;;5012421;28;20484;-81
2022/11/25 05:00:22;;;;;;;4.83;4.33;;;5.00;99.90;;;;;;5025352;28;20202;-81
2022/11/25 05:02:48;;;;;;;10.83;4.93;;;4.80;99.90;;;;;;5013882;28;20328;-81
2022/11/25 05:05:14;;;;;;;5.37;4.30;;;5.30;99.90;;;;;;5023899;28;20191;-85
2022/11/25 05:07:39;;;;;;;6.93;5.10;;;5.30;99.90;;;;;;5005794;28;20496;-84
2022/11/25 05:10:05;;;;;;;7.63;4.90;;;5.50;99.90;;;;;;5019472;28;20308;-81
2022/11/25 05:12:31;;;;;;;6.03;4.80;;;5.20;99.90;;;;;;5026296;28;20194;-87
2022/11/25 05:14:57;;;;;;;8.57;5.47;;;5.40;99.90;;;;;;5025993;28;20200;-87
2022/11/25 05:17:24;;;;;;;8.43;5.70;;;5.70;99.90;;;;;;5014475;28;20281;-85
2022/11/25 05:19:50;;;;;;;9.50;5.65;;;5.30;99.90;;;;;;5010209;28;20522;-84
2022/11/25 05:22:36;;;;;;;8.60;5.97;;;5.10;99.90;;;;;;5023595;28;20273;-94
2022/11/25 05:25:04;;;;;;;7.80;6.25;;;;;;;;;;5017624;28;20187;-90
2022/11/25 05:27:30;;;;;;;9.25;6.00;;;;;;;;;;5007436;28;20216;-86
2022/11/25 05:29:56;;;;;;;10.20;6.00;;;5.30;99.90;;;;;;5020542;28;20648;-81
2022/11/25 05:32:21;;;;;;;9.27;5.87;;;5.20;99.90;;;;;;5024150;28;20437;-80
2022/11/25 05:34:47;;;;;;;7.73;5.90;;;5.20;99.90;;;;;;5006087;28;20928;-84
2022/11/25 05:37:13;;;;;;;7.53;6.07;;;5.30;99.90;;;;;;5024844;28;20240;-82
2022/11/25 05:39:39;;;;;;;8.27;6.03;;;;;;;;;;5023676;28;20206;-93
2022/11/25 05:42:05;;;;;;;8.63;5.95;;;5.30;99.90;;;;;;5004783;28;20883;-92
2022/11/25 05:44:30;;;;;;;8.43;6.90;;;5.10;99.90;;;;;;5016271;28;20278;-79
2022/11/25 05:46:56;;;;;;;10.13;6.70;;;5.70;99.90;;;;;;5022791;28;20472;-80
2022/11/25 05:49:21;;;;;;;11.60;7.23;;;5.00;99.90;;;;;;5003188;28;20279;-79
2022/11/25 05:51:47;;;;;;;7.67;6.40;;;5.20;99.90;;;;;;5022940;28;20253;-80
2022/11/25 05:54:13;;;;;;;7.60;6.63;;;5.40;99.90;;;;;;5018117;28;20214;-79
2022/11/25 05:56:39;;;;;;;7.72;7.00;;;5.10;99.90;;;;;;5001886;28;20480;-79
2022/11/25 05:59:05;;;;;;;8.93;6.30;;;5.10;99.90;;;;;;5021741;28;20642;-79
2022/11/25 06:01:31;;;;;;;7.50;6.27;;;5.00;99.90;;;;;;5005426;28;20214;-80
2022/11/25 06:04:01;;;;;;;8.52;6.35;;;4.70;99.90;;;;;;5003573;28;20451;-78
2022/11/25 06:06:27;;;;;;;10.43;6.70;;;4.60;99.90;;;;;;5003268;28;20186;-79
2022/11/25 06:08:52;;;;;;;8.87;6.20;;;4.30;99.90;;;;;;5008630;28;20197;-79
2022/11/25 06:11:18;;;;;;;10.33;6.47;;;;;;;;;;5009267;28;20254;-88
2022/11/25 06:13:44;;;;;;;10.30;6.93;;;4.70;99.90;;;;;;5026431;28;20200;-85
2022/11/25 06:16:16;;;;;;;7.90;6.90;;;4.70;99.90;;;;;;5025981;28;20188;-86
2022/11/25 06:18:42;;;;;;;8.60;7.22;;;4.70;99.90;;;;;;5027942;28;20248;-85
2022/11/25 06:21:09;;;;;;;11.20;7.60;;;5.10;99.90;;;;;;5014990;28;20201;-86
2022/11/25 06:23:36;;;;;;;8.00;6.45;;;4.60;99.90;;;;;;5028612;28;20194;-87
2022/11/25 06:26:15;;;;;;;11.15;7.97;;;4.80;99.90;;;;;;5013551;28;20242;-86
2022/11/25 06:28:41;;;;;;;7.97;6.82;;;5.00;99.90;;;;;;5014794;28;20177;-84
2022/11/25 06:31:09;;;;;;;6.90;5.93;;;4.50;99.90;;;;;;5008676;28;20219;-83
2022/11/25 06:33:35;;;;;;;8.95;6.43;;;4.30;99.90;;;;;;5020506;28;20181;-84
2022/11/25 06:36:05;;;;;;;8.73;6.67;;;4.90;99.90;;;;;;5007487;28;20277;-81
2022/11/25 06:38:31;;;;;;;8.73;6.45;;;4.50;99.90;;;;;;5027270;28;20529;-81
2022/11/25 06:41:04;;;;;;;10.80;7.10;;;4.50;99.90;;;;;;5009447;28;20703;-81
2022/11/25 06:43:30;;;;;;;8.63;6.55;;;4.20;99.90;;;;;;5025158;28;20207;-80
2022/11/25 06:46:02;;;;;;;9.00;6.30;;;4.70;99.90;;;;;;5018315;28;20296;-81
2022/11/25 06:48:28;;;;;;;14.88;6.80;;;4.50;99.90;;;;;;5001480;28;20201;-80
2022/11/25 06:50:59;;;;;;;10.60;7.70;;;4.40;99.90;;;;;;5022567;28;20245;-84
2022/11/25 06:53:25;;;;;;;7.10;6.10;;;4.50;99.90;;;;;;5027863;28;20181;-84
2022/11/25 06:56:01;;;;;;;5.75;5.15;;;4.60;99.90;;;;;;5011387;28;20736;-82
2022/11/25 06:58:29;;;;;;;6.82;5.38;;;4.50;99.90;;;;;;5008892;28;20231;-82
2022/11/25 07:01:00;;;;;;;7.07;6.35;;;4.60;99.90;;;;;;5009676;28;20229;-82
2022/11/25 07:03:26;;;;;;;6.63;5.90;;;5.10;99.90;;;;;;5016358;28;20185;-82
2022/11/25 07:05:55;;;;;;;14.23;5.80;;;4.60;99.90;;;;;;5008852;28;20210;-78
2022/11/25 07:08:23;;;;;;;6.45;5.30;;;4.80;99.90;;;;;;5005052;28;20214;-80
2022/11/25 07:10:48;;;;;;;5.85;4.60;;;5.10;99.90;;;;;;5009846;28;20238;-82
2022/11/25 07:13:14;;;;;;;6.90;4.93;;;5.50;99.90;;;;;;5012288;28;20198;-82
2022/11/25 07:15:40;;;;;;;5.33;4.57;;;5.00;99.90;;;;;;5009682;28;20219;-86
2022/11/25 07:18:05;;;;;;;6.33;5.40;;;6.60;99.90;;;;;;5025740;28;20256;-84
2022/11/25 07:20:31;;;;;;;9.23;5.60;;;5.70;99.90;;;;;;5005993;28;20217;-83
2022/11/25 07:22:57;;;;;;;8.82;5.30;;;5.90;99.90;;;;;;5008544;28;20198;-87
2022/11/25 07:25:22;;;;;;;9.57;5.80;;;5.50;99.90;;;;;;5010001;28;20191;-85
2022/11/25 07:27:48;;;;;;;9.27;6.10;;;5.60;99.90;;;;;;5028532;28;20656;-85
2022/11/25 07:30:14;;;;;;;8.20;5.50;;;5.70;99.90;;;;;;5018168;28;20213;-90
2022/11/25 07:36:33;;;;;;;6.88;4.25;;;5.80;99.90;;;;;;5019320;28;20272;-95
2022/11/25 07:39:05;;;;;;;4.88;4.15;;;5.60;99.90;;;;;;5005229;28;20294;-96
2022/11/25 07:41:31;;;;;;;10.38;5.40;;;6.70;99.90;;;;;;5021150;28;20204;-90
2022/11/25 07:44:00;;;;;;;5.90;4.20;;;5.90;99.90;;;;;;5008035;28;20301;-92
2022/11/25 07:46:41;;;;;;;5.93;5.05;;;6.70;99.90;;;;;;5011853;28;20657;-93
2022/11/25 07:49:10;;;;;;;4.55;3.92;;;6.90;99.90;;;;;;5026164;28;20207;-92
2022/11/25 07:54:59;;;;;;;5.45;4.13;;;6.30;99.90;;;;;;4964797;28;20253;-94
2022/11/25 07:57:24;;;;;;;9.47;5.00;;;7.80;99.90;;;;;;5011432;28;20187;-85
2022/11/25 07:59:50;;;;;;;4.77;4.37;;;6.60;99.90;;;;;;5009606;28;20690;-86
2022/11/25 08:02:15;;;;;;;8.40;5.53;;;6.90;99.90;;;;;;5011144;28;20659;-86
2022/11/25 08:04:41;;;;;;;7.70;4.50;;;6.30;99.90;;;;;;5009559;28;20651;-85
2022/11/25 08:07:06;;;;;;;7.50;4.83;;;6.90;99.90;;;;;;5026673;28;20651;-84
2022/11/25 08:09:32;;;;;;;5.20;4.30;;;6.90;99.90;;;;;;5029033;28;20210;-86
2022/11/25 08:11:57;;;;;;;6.47;5.03;;;7.10;99.90;;;;;;5012307;28;20565;-85
2022/11/25 08:14:25;;;;;;;7.20;4.77;;;7.40;99.90;;;;;;5012484;28;20246;-85
2022/11/25 08:16:51;;;;;;;7.70;4.25;;;7.10;99.90;;;;;;5011087;28;20660;-85
2022/11/25 08:19:17;;;;;;;6.20;4.57;;;7.10;99.90;;;;;;5024173;28;20352;-90
2022/11/25 08:21:54;;;;;;;8.07;4.57;;;8.90;99.90;;;;;;5013170;28;20253;-94
2022/11/25 08:24:20;;;;;;;5.75;4.20;;;8.10;99.90;;;;;;5006706;28;20190;-92
2022/11/25 08:27:00;;;;;;;6.20;4.28;;;8.10;99.90;;;;;;5029061;28;20175;-94
2022/11/25 08:29:26;;;;;;;6.97;5.03;;;7.40;99.90;;;;;;5025478;28;20182;-83
2022/11/25 08:31:51;;;;;;;6.97;4.33;;;6.90;99.90;;;;;;5023659;28;20195;-87
2022/11/25 08:34:21;;;;;;;7.20;5.60;;;7.40;99.90;;;;;;5013658;28;20725;-88
2022/11/25 08:36:46;;;;;;;4.90;3.88;;;6.90;99.90;;;;;;5010280;28;20183;-87
2022/11/25 08:39:12;;;;;;;5.53;3.93;;;7.40;99.90;;;;;;5024809;28;20203;-85
2022/11/25 08:41:38;;;;;;;4.67;3.83;;;7.60;99.90;;;;;;5004033;28;20187;-88
2022/11/25 08:44:07;;;;;;;5.30;3.67;;;7.40;99.90;;;;;;5028298;28;20229;-90
2022/11/25 08:46:36;;;;;;;4.30;3.90;;;9.10;99.90;;;;;;5012182;28;20187;-91
2022/11/25 08:49:03;;;;;;;3.90;3.60;;;8.30;99.90;;;;;;5009603;28;20214;-91
2022/11/25 08:51:32;;;;;;;5.32;4.82;;;8.80;99.90;;;;;;5022875;28;20293;-90
2022/11/25 08:53:58;;;;;;;10.32;6.25;;;7.60;99.90;;;;;;5025253;28;20198;-83
2022/11/25 08:56:25;;;;;;;6.88;5.03;;;7.90;99.90;;;;;;5008791;28;20229;-85
2022/11/25 08:58:50;;;;;;;6.50;4.18;;;8.60;99.90;;;;;;5025218;28;20211;-85
2022/11/25 09:01:18;;;;;;;5.37;3.87;;;8.40;99.90;;;;;;5010286;28;20203;-85
2022/11/25 09:03:46;;;;;;;5.60;4.03;;;8.40;99.90;;;;;;5010273;28;20215;-85
2022/11/25 09:06:13;;;;;;;5.80;3.95;;;8.40;99.90;;;;;;4997231;28;20187;-83
2022/11/25 09:08:40;;;;;;;3.70;3.28;;;8.70;99.90;;;;;;5005189;28;20226;-85
2022/11/25 09:11:07;;;;;;;7.28;3.33;;;8.80;99.90;;;;;;5021511;28;20213;-83
2022/11/25 09:13:33;;;;;;;4.18;3.78;;;9.40;99.90;;;;;;5008870;28;20199;-84
2022/11/25 09:16:08;;;;;;;3.97;3.53;;;9.00;99.90;;;;;;5005320;28;20667;-95
2022/11/25 09:18:36;;;;;;;4.18;3.50;;;9.50;99.90;;;;;;4993387;28;20510;-89
2022/11/25 09:21:10;;;;;;;4.97;3.40;;;9.50;99.90;;;;;;5009592;28;20204;-86
2022/11/25 09:23:39;;;;;;;3.22;2.92;;;8.90;99.90;;;;;;5009820;28;20171;-85
2022/11/25 09:26:06;;;;;;;4.05;3.20;;;8.70;99.90;;;;;;5014204;28;20188;-85
2022/11/25 09:28:38;;;;;;;3.75;3.33;;;9.40;99.90;;;;;;5003743;28;20262;-96
2022/11/25 09:31:08;;;;;;;5.78;3.55;;;9.60;99.90;;;;;;5049074;22;20253;-68
2022/11/25 09:33:34;;;;;;;3.90;2.95;;;9.60;99.90;;;;;;5021134;28;20249;-65
2022/11/25 09:36:00;;;;;;;7.03;3.70;;;9.60;99.90;;;;;;5020656;28;20186;-64
2022/11/25 09:38:26;;;;;;;10.73;5.50;;;9.90;99.90;;;;;;5022279;28;20207;-64
2022/11/25 09:48:14;;;;;;;3.97;3.20;;;10.10;99.90;;;;;;5017951;28;20194;-67
2022/11/25 09:50:57;;;;;;;6.50;2.90;;;10.20;99.90;;;;;;4996256;28;20202;-67
2022/11/25 09:53:34;;;;;;;6.88;3.05;;;10.50;99.90;;;;;;5026241;28;20872;-64
2022/11/25 09:56:10;;;;;;;7.07;3.65;;;10.50;99.90;;;;;;5027567;28;20188;-66
2022/11/25 09:58:40;;;;;;;11.18;3.40;;;10.60;99.90;;;;;;5029175;28;20256;-66
2022/11/25 10:01:14;;;;;;;5.90;3.30;;;10.80;99.90;;;;;;5031315;28;20641;-65
2022/11/25 10:03:47;;;;;;;6.15;3.67;;;10.90;99.90;;;;;;5028714;28;20732;-68
2022/11/25 10:06:24;;;;;;;4.93;3.00;;;11.00;99.90;;;;;;5028733;28;20302;-66
2022/11/25 10:08:54;;;;;;;4.65;3.35;;;10.90;99.90;;;;;;5029701;28;20237;-64
2022/11/25 10:11:20;;;;;;;4.25;2.83;;;10.90;99.90;;;;;;5029163;28;20278;-64
2022/11/25 10:14:23;;;;;;;3.83;2.90;;;11.20;99.90;;;;;;5026767;28;20212;-64
2022/11/25 10:16:57;;;;;;;3.80;2.90;;;11.00;99.90;;;;;;5021348;28;20185;-64
2022/11/25 10:19:30;;;;;;;5.25;3.97;;;11.10;99.90;;;;;;5031569;28;20586;-66
2022/11/25 10:21:56;;;;;;;3.40;2.80;;;11.00;99.90;;;;;;5029324;28;20193;-66
2022/11/25 10:24:23;;;;;;;4.77;2.80;;;11.30;99.90;;;;;;5028790;28;20296;-66
2022/11/25 10:26:58;;;;;;;2.95;2.47;;;10.80;99.90;;;;;;5030501;28;20546;-66
2022/11/25 10:29:27;;;;;;;3.10;2.80;;;11.40;99.90;;;;;;5027101;28;20666;-63
2022/11/25 10:32:10;;;;;;;3.58;2.95;;;11.40;99.90;;;;;;5041616;28;20202;-65
2022/11/25 10:34:43;;;;;;;4.72;3.20;;;12.00;99.90;;;;;;5024230;28;20209;-66
2022/11/25 10:37:28;;;;;;;7.45;3.10;;;11.90;99.90;;;;;;5044015;28;20210;-64
2022/11/25 10:39:54;;;;;;;6.60;3.30;;;11.80;99.90;;;;;;5027353;28;20214;-69
2022/11/25 10:42:23;;;;;;;3.30;2.90;;;12.50;99.90;;;;;;5024281;28;20217;-66
2022/11/25 10:44:50;;;;;;;4.97;3.08;;;12.30;99.90;;;;;;5025950;28;20205;-66
2022/11/25 10:47:54;;;;;;;5.20;3.17;;;12.80;99.90;;;;;;5024590;28;20190;-68
2022/11/25 10:50:41;;;;;;;5.00;3.35;;;13.10;99.90;;;;;;5010295;28;20217;-67
2022/11/25 10:53:25;;;;;;;4.25;3.55;;;13.30;99.90;;;;;;5021903;28;20194;-67
2022/11/25 10:56:04;;;;;;;5.15;2.90;;;13.20;99.90;;;;;;5023924;28;20182;-67
2022/11/25 10:58:34;;;;;;;4.20;2.92;;;13.10;99.90;;;;;;5026909;28;20221;-66
2022/11/25 11:01:36;;;;;;;4.32;2.72;;;13.10;99.50;;;;;;5028440;28;20178;-66
2022/11/25 11:04:13;;;;;;;5.43;2.30;;;13.40;99.50;;;;;;4989168;28;20225;-66
2022/11/25 11:06:42;;;;;;;2.55;2.00;;;12.90;99.30;;;;;;5023942;28;20577;-66
2022/11/25 11:09:33;;;;;;;3.20;1.88;;;13.20;99.20;;;;;;5024596;28;20178;-65
2022/11/25 11:12:13;;;;;;;3.90;2.30;;;12.90;99.20;;;;;;5019531;28;20202;-67
2022/11/25 11:14:38;;;;;;;2.85;2.47;;;12.70;99.30;;;;;;5030790;28;20198;-66
2022/11/25 11:17:04;;;;;;;3.00;1.90;;;12.80;99.80;;;;;;5031203;28;20546;-66
2022/11/25 11:19:30;;;;;;;5.13;2.07;;;12.60;99.80;;;;;;5019439;28;20214;-65
2022/11/25 11:22:13;;;;;;;3.92;2.30;;;12.70;99.90;;;;;;5028114;28;20442;-66
2022/11/25 11:24:41;;;;;;;3.17;2.10;;;12.70;99.90;;;;;;5027494;28;20523;-66
2022/11/25 11:27:20;;;;;;;3.35;2.15;;;12.30;99.90;;;;;;5031188;28;20189;-67
2022/11/25 11:29:46;;;;;;;2.90;2.15;;;12.40;99.90;;;;;;5028108;28;20200;-68
2022/11/25 11:32:31;;;;;;;2.77;1.97;;;11.80;99.90;;;;;;5029396;28;20183;-69
2022/11/25 11:35:06;;;;;;;5.15;2.75;;;12.20;99.90;;;;;;5031979;28;20463;-68
2022/11/25 11:37:38;;;;;;;3.25;2.03;;;12.20;99.90;;;;;;5029519;28;20276;-65
2022/11/25 11:40:36;;;;;;;2.38;1.88;;;12.20;99.90;;;;;;5024987;28;20193;-64
2022/11/25 11:43:23;;;;;;;8.55;6.40;;;12.30;99.90;;;;;;5027349;28;20660;-64
2022/11/25 11:45:50;;;;;;;8.80;6.70;;;12.00;99.90;;;;;;5022015;28;20232;-66
2022/11/25 11:48:37;;;;;;;11.32;7.10;;;11.70;99.90;;;;;;5030003;28;20203;-65
2022/11/25 11:51:21;;;;;;;11.85;8.10;;;11.30;99.90;;;;;;5023860;28;20187;-67
2022/11/25 11:54:28;;;;;;;13.43;8.70;;;11.20;99.90;;;;;;5022895;28;20240;-66
2022/11/25 11:57:00;;;;;;;6.03;5.10;;;11.10;99.90;;;;;;5040544;28;20236;-66
2022/11/25 11:59:31;;;;;;;6.63;5.95;;;10.90;99.90;;;;;;5044278;28;20223;-65
2022/11/25 12:02:12;;;;;;;9.70;6.05;;;11.00;99.90;;;;;;5037915;28;20187;-65
2022/11/25 12:04:50;;;;;;;6.85;5.72;;;10.80;99.90;;;;;;5022448;28;20199;-68
2022/11/25 12:07:36;;;;;;;8.18;6.57;;;11.20;99.90;;;;;;5024083;28;20274;-66
2022/11/25 12:10:14;;;;;;;8.38;6.72;;;10.90;99.90;;;;;;5026278;28;20288;-67
2022/11/25 12:13:03;;;;;;;6.28;5.10;;;10.90;99.90;;;;;;5018535;28;20203;-68
2022/11/25 12:15:42;;;;;;;9.07;5.60;;;11.20;99.90;;;;;;5022652;28;20188;-67
2022/11/25 12:18:42;;;;;;;9.30;5.57;;;11.10;99.90;;;;;;5022202;28;20547;-64
2022/11/25 12:21:32;;;;;;;6.38;5.60;;;11.20;99.90;;;;;;5020400;28;20718;-65
2022/11/25 12:24:09;;;;;;;9.20;5.80;;;10.80;99.90;;;;;;5024240;28;20224;-64
2022/11/25 12:26:47;;;;;;;7.88;5.70;;;10.90;99.90;;;;;;5023020;28;20188;-66
2022/11/25 12:29:28;;;;;;;6.55;5.15;;;11.00;99.90;;;;;;5016875;28;20572;-67
2022/11/25 12:32:04;;;;;;;6.25;4.80;;;11.10;99.90;;;;;;5015783;28;20195;-66
2022/11/25 12:34:54;;;;;;;6.72;4.78;;;11.20;99.90;;;;;;5022560;28;20212;-66
2022/11/25 12:37:35;;;;;;;8.00;4.90;;;11.20;99.90;;;;;;5023284;28;20316;-66
2022/11/25 12:40:34;;;;;;;7.65;5.60;;;11.10;99.90;;;;;;5027894;28;20244;-65
2022/11/25 12:43:27;;;;;;;6.43;4.25;;;11.20;99.90;;;;;;5024441;28;20518;-65
2022/11/25 12:46:18;;;;;;;6.30;4.13;;;11.10;99.90;;;;;;5025321;28;20193;-64
2022/11/25 12:48:44;;;;;;;7.00;4.45;;;11.20;99.90;;;;;;5027815;28;20192;-63
2022/11/25 12:51:59;;;;;;;5.10;3.70;;;11.50;99.90;;;;;;5026647;28;20198;-68
2022/11/25 12:55:01;;;;;;;5.88;3.75;;;11.50;99.90;;;;;;5011815;28;20253;-67
2022/11/25 12:58:05;;;;;;;5.40;4.88;;;11.70;99.90;;;;;;5023679;28;20662;-66
2022/11/25 13:01:07;;;;;;;7.85;4.95;;;11.50;99.90;;;;;;5034565;28;20187;-66
2022/11/25 13:03:55;;;;;;;7.25;4.65;;;11.50;99.90;;;;;;5024486;28;20215;-66
2022/11/25 13:06:56;;;;;;;6.20;4.28;;;11.40;99.90;;;;;;5024132;28;20209;-70
2022/11/25 13:09:57;;;;;;;5.50;4.70;;;11.50;99.90;;;;;;5027156;28;20176;-67
2022/11/25 13:12:53;;;;;;;6.78;3.30;;;11.50;99.90;;;;;;5029359;28;20285;-66
2022/11/25 13:15:26;;;;;;;8.57;5.00;;;11.50;99.90;;;;;;5016759;28;20750;-66
2022/11/25 13:18:08;;;;;;;5.43;4.22;;;11.30;99.90;;;;;;5023146;28;20281;-65
2022/11/25 13:20:40;;;;;;;5.80;4.97;;;11.40;99.90;;;;;;5025828;28;20185;-63
2022/11/25 13:23:07;;;;;;;10.77;6.15;;;11.50;99.90;;;;;;5019904;28;20210;-65
2022/11/25 13:25:34;;;;;;;10.95;6.15;;;11.50;99.90;;;;;;5025234;28;20188;-67
2022/11/25 13:28:02;;;;;;;12.20;6.65;;;11.10;99.90;;;;;;5026868;28;20189;-68
2022/11/25 13:30:31;;;;;;;9.45;6.45;;;11.20;99.90;;;;;;5020678;28;20673;-66
2022/11/25 13:32:57;;;;;;;10.07;6.88;;;11.20;99.90;;;;;;5025508;28;20672;-68
2022/11/25 13:35:28;;;;;;;9.38;6.88;;;11.20;99.90;;;;;;5025806;28;20207;-65